.
WxDataArchive / Data Records for 2007-11-14
2007-11-13 November 2007 2007-11-15

Data Records for Wednesday, 14 November 2007

Time	Temp	Chill	HIndex	Humid	Dewpt	 Wind 	HiWind	WindDir	Rain 	Barom 
-----	----	-----	------	-----	-----	------	------	-------	-----	----- 
00:00	52.3	52.3	52.3	91	49.8	1	4	225	0.00	29.724 
00:05	52.3	52.3	52.3	92	50.0	1	4	248	0.00	29.721 
00:10	52.3	52.3	52.3	92	50.0	1	5	68	0.00	29.715 
00:15	52.5	52.5	52.5	92	50.2	1	4	248	0.00	29.711 
00:20	52.5	52.5	52.5	92	50.2	1	9	90	0.00	29.706 
00:25	52.6	52.6	52.6	93	50.6	1	3	0	0.00	29.705 
00:30	52.6	52.6	52.6	93	50.6	1	6	270	0.00	29.699 
00:35	52.8	52.8	52.8	93	50.8	1	3	338	0.00	29.692 
00:40	52.8	52.8	52.8	93	50.8	1	5	248	0.00	29.691 
00:45	52.9	52.9	52.9	94	51.2	2	6	248	0.00	29.694 
00:50	52.9	52.9	52.9	94	51.2	1	3	225	0.00	29.691 
00:55	53.1	53.1	53.1	94	51.4	2	7	248	0.00	29.689 
01:00	53.2	53.2	53.2	94	51.5	1	4	248	0.00	29.687 
01:05	53.3	53.3	53.3	94	51.6	2	5	248	0.00	29.688 
01:10	53.6	53.6	53.6	94	51.9	2	6	248	0.00	29.673 
01:15	53.8	53.8	53.8	94	52.1	1	3	248	0.00	29.669 
01:20	53.9	53.9	53.9	94	52.2	1	4	248	0.00	29.676 
01:25	54.1	54.1	54.1	95	52.7	2	5	248	0.00	29.676 
01:30	54.2	54.2	54.2	95	52.8	1	5	248	0.00	29.673 
01:35	54.4	54.4	54.4	95	53.0	2	6	248	0.00	29.669 
01:40	54.5	54.5	54.5	95	53.1	2	6	225	0.00	29.660 
01:45	54.7	54.7	54.7	95	53.3	2	6	248	0.00	29.668 
01:50	54.8	54.8	54.8	95	53.4	3	11	248	0.00	29.669 
01:55	55.0	55.0	55.0	95	53.6	2	7	248	0.00	29.659 
02:00	55.1	55.1	55.1	95	53.7	3	8	248	0.00	29.663 
02:05	55.3	55.3	55.3	95	53.9	2	7	248	0.00	29.666 
02:10	55.3	55.3	55.3	95	53.9	3	10	248	0.00	29.664 
02:15	55.6	55.6	55.6	95	54.2	3	7	248	0.00	29.658 
02:20	55.7	55.7	55.7	95	54.3	3	10	248	0.00	29.656 
02:25	55.9	55.9	55.9	95	54.5	2	5	248	0.00	29.656 
02:30	56.0	56.0	56.0	95	54.6	3	10	248	0.00	29.655 
02:35	56.2	56.2	56.2	94	54.5	1	5	248	0.00	29.653 
02:40	56.2	56.2	56.2	94	54.5	2	5	248	0.00	29.651 
02:45	56.3	56.3	56.3	94	54.6	2	9	248	0.00	29.642 
02:50	56.5	56.5	56.5	94	54.8	3	9	248	0.00	29.642 
02:55	56.6	56.6	56.6	93	54.6	2	5	248	0.00	29.644 
03:00	56.7	56.7	56.7	93	54.7	3	11	248	0.00	29.640 
03:05	56.9	56.9	56.9	92	54.6	3	7	248	0.00	29.636 
03:10	57.0	57.0	57.0	92	54.7	3	7	248	0.00	29.630 
03:15	57.0	57.0	57.0	92	54.7	3	10	248	0.00	29.626 
03:20	57.0	57.0	57.0	92	54.7	2	6	248	0.00	29.624 
03:25	57.2	57.2	57.2	92	54.9	3	6	248	0.00	29.623 
03:30	57.3	57.3	57.3	92	55.0	3	7	248	0.00	29.622 
03:35	57.3	57.3	57.3	91	54.7	3	6	248	0.00	29.619 
03:40	57.5	57.5	57.5	91	54.9	2	9	248	0.00	29.618 
03:45	57.5	57.5	57.5	91	54.9	3	7	248	0.00	29.615 
03:50	57.5	57.5	57.5	91	54.9	2	7	248	0.00	29.616 
03:55	57.6	57.6	57.6	91	55.0	3	5	248	0.00	29.614 
04:00	57.8	57.8	57.8	91	55.2	3	9	248	0.00	29.616 
04:05	57.8	57.8	57.8	91	55.2	2	6	225	0.00	29.615 
04:10	57.8	57.8	57.8	91	55.2	2	7	248	0.00	29.612 
04:15	58.0	58.0	58.0	91	55.4	3	8	248	0.00	29.611 
04:20	58.1	58.1	58.1	91	55.5	3	9	248	0.00	29.610 
04:25	58.3	58.3	58.3	90	55.4	3	11	248	0.00	29.608 
04:30	58.3	58.3	58.3	90	55.4	3	9	248	0.00	29.609 
04:35	58.3	58.3	58.3	90	55.4	2	6	270	0.00	29.609 
04:40	58.4	58.4	58.4	89	55.2	4	10	248	0.00	29.610 
04:45	58.4	58.4	58.4	89	55.2	2	5	248	0.00	29.611 
04:50	58.6	58.6	58.6	89	55.4	3	7	248	0.00	29.610 
04:55	58.4	58.4	58.4	89	55.2	2	7	248	0.00	29.609 
05:00	58.4	58.4	58.4	89	55.2	2	9	248	0.00	29.610 
05:05	58.4	58.4	58.4	88	54.9	2	7	248	0.00	29.614 
05:10	58.6	58.6	58.6	86	54.4	3	9	248	0.00	29.612 
05:15	58.7	58.7	58.7	85	54.2	3	9	248	0.00	29.609 
05:20	58.7	58.7	58.7	85	54.2	2	5	248	0.00	29.609 
05:25	58.7	58.7	58.7	84	53.9	4	11	270	0.00	29.608 
05:30	58.7	58.7	58.7	84	53.9	2	10	248	0.00	29.612 
05:35	58.6	58.6	58.6	85	54.1	3	6	248	0.00	29.612 
05:40	58.6	58.6	58.6	85	54.1	3	10	248	0.00	29.611 
05:45	58.6	58.6	58.6	84	53.8	4	9	248	0.00	29.612 
05:50	58.6	58.6	58.6	84	53.8	3	10	248	0.00	29.613 
05:55	58.4	58.4	58.4	84	53.6	2	5	248	0.00	29.616 
06:00	58.3	58.3	58.3	84	53.5	3	9	248	0.00	29.617 
06:05	58.3	58.3	58.3	84	53.5	2	5	248	0.00	29.619 
06:10	58.1	58.1	58.1	84	53.3	2	5	248	0.00	29.624 
06:15	58.1	58.1	58.1	84	53.3	2	7	248	0.00	29.625 
06:20	58.1	58.1	58.1	84	53.3	3	10	270	0.00	29.628 
06:25	58.0	58.0	58.0	84	53.2	2	10	248	0.00	29.630 
06:30	58.0	58.0	58.0	84	53.2	2	5	248	0.00	29.631 
06:35	58.0	58.0	58.0	83	52.9	4	11	248	0.00	29.633 
06:40	58.0	58.0	58.0	83	52.9	3	7	248	0.00	29.634 
06:45	57.8	57.8	57.8	83	52.7	3	9	248	0.00	29.637 
06:50	57.5	57.5	57.5	83	52.4	3	6	248	0.00	29.638 
06:55	57.3	57.3	57.3	84	52.5	3	6	248	0.00	29.636 
07:00	57.2	57.2	57.2	84	52.4	2	7	248	0.00	29.637 
07:05	57.2	57.2	57.2	84	52.4	3	6	248	0.00	29.631 
07:10	57.0	57.0	57.0	84	52.2	3	6	248	0.00	29.630 
07:15	57.0	57.0	57.0	84	52.2	1	3	248	0.00	29.630 
07:20	56.9	56.9	56.9	85	52.4	1	7	248	0.00	29.632 
07:25	56.9	56.9	56.9	85	52.4	3	5	248	0.00	29.629 
07:30	56.7	56.7	56.7	85	52.2	1	4	248	0.00	29.629 
07:35	56.6	56.6	56.6	86	52.5	1	5	270	0.00	29.629 
07:40	56.5	56.5	56.5	86	52.4	2	4	225	0.00	29.630 
07:45	56.5	56.5	56.5	87	52.7	2	8	248	0.00	29.628 
07:50	56.5	56.5	56.5	87	52.7	3	6	248	0.00	29.628 
07:55	56.5	56.5	56.5	87	52.7	2	6	248	0.00	29.630 
08:00	56.5	56.5	56.5	87	52.7	2	7	248	0.00	29.631 
08:05	56.5	56.5	56.5	87	52.7	1	4	248	0.00	29.635 
08:10	56.5	56.5	56.5	87	52.7	2	10	248	0.00	29.640 
08:15	56.6	56.6	56.6	86	52.5	2	7	248	0.00	29.637 
08:20	56.6	56.6	56.6	86	52.5	1	4	248	0.00	29.642 
08:25	56.7	56.7	56.7	86	52.6	2	4	248	0.00	29.642 
08:30	56.7	56.7	56.7	86	52.6	2	7	248	0.00	29.644 
08:35	56.7	56.7	56.7	85	52.2	2	4	248	0.00	29.646 
08:40	56.7	56.7	56.7	85	52.2	2	4	248	0.00	29.644 
08:45	56.7	56.7	56.7	85	52.2	2	5	248	0.00	29.644 
08:50	56.7	56.7	56.7	85	52.2	2	6	248	0.00	29.645 
08:55	56.9	56.9	56.9	84	52.1	3	8	248	0.00	29.644 
09:00	57.0	57.0	57.0	84	52.2	2	6	248	0.00	29.643 
09:05	57.0	57.0	57.0	83	51.9	4	8	248	0.00	29.651 
09:10	57.2	57.2	57.2	82	51.8	4	12	248	0.00	29.651 
09:15	57.3	57.3	57.3	82	51.9	3	10	248	0.00	29.656 
09:20	57.5	57.5	57.5	81	51.7	4	10	248	0.00	29.655 
09:25	57.3	57.3	57.3	81	51.5	3	10	248	0.00	29.654 
09:30	57.2	57.2	57.2	80	51.1	4	9	270	0.00	29.656 
09:35	57.0	57.0	57.0	80	50.9	4	10	248	0.00	29.652 
09:40	57.0	57.0	57.0	80	50.9	5	11	270	0.00	29.645 
09:45	57.3	57.3	57.3	79	50.8	5	13	270	0.00	29.652 
09:50	57.2	57.2	57.2	77	50.1	3	7	270	0.00	29.656 
09:55	56.9	56.9	56.9	78	50.1	3	5	270	0.00	29.656 
10:00	56.6	56.6	56.6	78	49.8	3	5	248	0.00	29.655 
10:05	56.6	56.6	56.6	78	49.8	3	5	270	0.00	29.657 
10:10	56.7	56.7	56.7	77	49.6	3	5	248	0.00	29.659 
10:15	56.7	56.7	56.7	76	49.2	3	9	270	0.00	29.662 
10:20	56.6	56.6	56.6	76	49.1	3	6	270	0.00	29.661 
10:25	56.6	56.6	56.6	76	49.1	3	9	270	0.00	29.659 
10:30	56.6	56.6	56.6	75	48.8	2	6	248	0.00	29.656 
10:35	56.7	56.7	56.7	76	49.2	2	9	248	0.00	29.659 
10:40	56.9	56.9	56.9	76	49.4	3	5	248	0.00	29.659 
10:45	56.7	56.7	56.7	77	49.6	2	5	270	0.00	29.667 
10:50	56.6	56.6	56.6	74	48.4	3	6	248	0.00	29.666 
10:55	56.5	56.5	56.5	73	47.9	3	10	248	0.00	29.664 
11:00	56.7	56.7	56.7	72	47.8	2	4	270	0.00	29.669 
11:05	57.2	57.2	57.2	72	48.3	3	7	270	0.00	29.663 
11:10	57.5	57.5	57.5	70	47.8	4	13	270	0.00	29.669 
11:15	57.6	57.6	57.6	69	47.5	4	10	248	0.00	29.672 
11:20	58.1	58.1	58.1	69	48.0	3	7	248	0.00	29.671 
11:25	58.6	58.6	58.6	69	48.5	5	11	248	0.00	29.671 
11:30	58.0	58.0	58.0	67	47.1	3	9	315	0.00	29.672 
11:35	57.0	57.0	57.0	69	46.9	2	6	315	0.00	29.674 
11:40	56.7	56.7	56.7	69	46.6	1	5	315	0.00	29.674 
11:45	57.3	57.3	57.3	66	46.0	3	9	292	0.00	29.673 
11:50	57.8	57.8	57.8	65	46.1	2	5	270	0.00	29.671 
11:55	57.2	57.2	57.2	63	44.7	2	4	270	0.00	29.668 
12:00	57.2	57.2	57.2	65	45.5	2	5	292	0.00	29.669 
12:05	57.3	57.3	57.3	60	43.5	4	9	270	0.00	29.670 
12:10	57.5	57.5	57.5	57	42.4	3	5	270	0.00	29.671 
12:15	57.6	57.6	57.6	58	42.9	2	6	270	0.00	29.671 
12:20	58.0	58.0	58.0	54	41.4	3	11	248	0.00	29.670 
12:25	58.4	58.4	58.4	54	41.8	2	5	270	0.00	29.671 
12:30	58.6	58.6	58.6	52	41.0	3	5	248	0.00	29.668 
12:35	58.7	58.7	58.7	51	40.6	2	5	248	0.00	29.667 
12:40	59.0	59.0	59.0	50	40.4	3	6	248	0.00	29.667 
12:45	59.0	59.0	59.0	50	40.4	3	7	270	0.00	29.664 
12:50	59.0	59.0	59.0	48	39.3	2	7	292	0.00	29.665 
12:55	59.3	59.3	59.3	46	38.5	3	9	248	0.00	29.663 
13:00	59.3	59.3	59.3	41	35.6	3	8	270	0.00	29.660 
13:05	59.6	59.6	59.6	44	37.7	2	5	248	0.00	29.661 
13:10	59.8	59.8	59.8	41	36.1	4	12	248	0.00	29.659 
13:15	59.6	59.6	59.6	39	34.6	4	12	270	0.00	29.657 
13:20	59.8	59.8	59.8	39	34.8	4	11	270	0.00	29.664 
13:25	59.8	59.8	59.8	36	32.8	4	9	270	0.00	29.666 
13:30	59.6	59.6	59.6	38	34.0	4	7	292	0.00	29.665 
13:35	59.8	59.8	59.8	37	33.5	3	5	270	0.00	29.665 
13:40	60.1	60.1	60.1	40	35.7	2	4	270	0.00	29.663 
13:45	60.1	60.1	60.1	34	31.6	3	6	270	0.00	29.660 
13:50	60.1	60.1	60.1	35	32.4	3	5	315	0.00	29.660 
13:55	60.2	60.2	60.2	33	31.0	3	7	270	0.00	29.658 
14:00	60.1	60.1	60.1	31	29.4	3	9	292	0.00	29.657 
14:05	60.1	60.1	60.1	31	29.4	4	8	270	0.00	29.653 
14:10	59.9	59.9	59.9	28	26.7	4	7	270	0.00	29.653 
14:15	59.8	59.8	59.8	28	26.6	3	9	292	0.00	29.655 
14:20	59.6	59.6	59.6	27	25.6	3	9	292	0.00	29.656 
14:25	59.8	59.8	59.8	28	26.6	2	6	292	0.00	29.656 
14:30	59.8	59.8	59.8	28	26.6	2	5	338	0.00	29.654 
14:35	59.6	59.6	59.6	28	26.5	2	3	315	0.00	29.656 
14:40	59.0	59.0	59.0	28	25.9	2	5	292	0.00	29.661 
14:45	58.9	58.9	58.9	27	25.0	3	6	270	0.00	29.661 
14:50	58.6	58.6	58.6	28	25.6	3	9	270	0.00	29.664 
14:55	58.7	58.7	58.7	28	25.7	3	7	292	0.00	29.668 
15:00	58.9	58.9	58.9	27	25.0	3	7	315	0.00	29.668 
15:05	59.0	59.0	59.0	29	26.8	2	5	270	0.00	29.667 
15:10	59.0	59.0	59.0	28	25.9	3	7	270	0.00	29.665 
15:15	58.9	58.9	58.9	28	25.9	2	5	248	0.00	29.667 
15:20	58.7	58.7	58.7	27	24.8	2	6	270	0.00	29.665 
15:25	58.7	58.7	58.7	28	25.7	2	7	270	0.00	29.665 
15:30	58.9	58.9	58.9	27	25.0	2	4	270	0.00	29.664 
15:35	58.9	58.9	58.9	28	25.9	2	4	292	0.00	29.660 
15:40	58.7	58.7	58.7	26	23.9	2	5	292	0.00	29.662 
15:45	58.4	58.4	58.4	27	24.6	2	5	270	0.00	29.658 
15:50	58.3	58.3	58.3	27	24.5	2	9	270	0.00	29.657 
15:55	58.1	58.1	58.1	28	25.2	2	4	292	0.00	29.656 
16:00	58.0	58.0	58.0	26	23.3	2	4	292	0.00	29.657 
16:05	57.6	57.6	57.6	27	23.9	2	6	270	0.00	29.658 
16:10	57.2	57.2	57.2	27	23.5	3	10	248	0.00	29.662 
16:15	56.9	56.9	56.9	27	23.3	2	6	270	0.00	29.661 
16:20	56.6	56.6	56.6	28	23.9	2	6	248	0.00	29.662 
16:25	56.5	56.5	56.5	28	23.8	2	9	248	0.00	29.658 
16:30	56.3	56.3	56.3	28	23.6	2	6	248	0.00	29.658 
16:35	56.3	56.3	56.3	27	22.8	2	5	270	0.00	29.659 
16:40	56.2	56.2	56.2	28	23.5	1	3	270	0.00	29.662 
16:45	56.0	56.0	56.0	28	23.4	2	12	270	0.00	29.666 
16:50	56.0	56.0	56.0	28	23.4	2	12	248	0.00	29.668 
16:55	55.9	55.9	55.9	27	22.4	1	3	248	0.00	29.669 
17:00	55.7	55.7	55.7	27	22.2	2	6	248	0.00	29.669 
17:05	55.6	55.6	55.6	28	23.0	1	4	248	0.00	29.667 
17:10	55.6	55.6	55.6	29	23.9	2	6	248	0.00	29.667 
17:15	55.4	55.4	55.4	29	23.7	2	6	248	0.00	29.668 
17:20	55.4	55.4	55.4	27	22.0	3	7	248	0.00	29.669 
17:25	55.3	55.3	55.3	25	20.1	3	10	248	0.00	29.667 
17:30	55.1	55.1	55.1	25	19.9	3	6	270	0.00	29.673 
17:35	55.1	55.1	55.1	25	19.9	3	6	270	0.00	29.674 
17:40	55.0	55.0	55.0	25	19.8	2	5	248	0.00	29.676 
17:45	54.8	54.8	54.8	25	19.7	2	4	292	0.00	29.686 
17:50	54.7	54.7	54.7	26	20.5	3	6	248	0.00	29.687 
17:55	54.5	54.5	54.5	26	20.3	2	4	270	0.00	29.688 
18:00	54.4	54.4	54.4	27	21.1	2	5	270	0.00	29.691 
18:05	54.1	54.1	54.1	27	20.9	4	7	270	0.00	29.696 
18:10	53.9	53.9	53.9	28	21.6	3	5	270	0.00	29.692 
18:15	53.6	53.6	53.6	27	20.4	4	9	270	0.00	29.696 
18:20	53.5	53.5	53.5	28	21.2	3	9	270	0.00	29.703 
18:25	53.2	53.2	53.2	28	21.0	3	6	270	0.00	29.702 
18:30	52.9	52.9	52.9	28	20.7	4	10	270	0.00	29.703 
18:35	52.6	52.6	52.6	30	22.1	4	12	270	0.00	29.705 
18:40	52.3	52.3	52.3	31	22.6	3	6	270	0.00	29.705 
18:45	52.2	52.2	52.2	32	23.2	3	7	270	0.00	29.708 
18:50	51.9	51.9	51.9	31	22.2	4	12	270	0.00	29.707 
18:55	51.6	51.6	51.6	31	22.0	3	6	270	0.00	29.709 
19:00	51.3	51.3	51.3	31	21.7	4	11	270	0.00	29.713 
19:05	51.1	51.1	51.1	31	21.5	4	12	270	0.00	29.713 
19:10	51.0	51.0	51.0	31	21.4	4	10	270	0.00	29.714 
19:15	50.5	50.5	50.5	31	21.0	5	11	270	0.00	29.719 
19:20	50.2	50.2	50.2	32	21.5	4	9	270	0.00	29.721 
19:25	50.1	50.1	50.1	33	22.1	3	5	270	0.00	29.722 
19:30	49.6	48.4	49.6	34	22.4	4	12	270	0.00	29.725 
19:35	49.5	49.5	49.5	35	23.0	2	5	270	0.00	29.727 
19:40	49.2	47.9	49.2	36	23.4	4	8	270	0.00	29.727 
19:45	48.9	48.9	48.9	37	23.8	3	8	270	0.00	29.726 
19:50	48.8	48.8	48.8	37	23.7	3	9	270	0.00	29.730 
19:55	48.6	48.6	48.6	38	24.2	2	4	270	0.00	29.727 
20:00	48.5	48.5	48.5	39	24.7	2	5	270	0.00	29.728 
20:05	48.3	48.3	48.3	40	25.1	2	5	315	0.00	29.727 
20:10	48.2	48.2	48.2	40	25.0	2	6	292	0.00	29.727 
20:15	48.0	48.0	48.0	41	25.4	2	4	270	0.00	29.733 
20:20	47.9	47.9	47.9	42	25.9	2	5	270	0.00	29.734 
20:25	47.7	47.7	47.7	43	26.3	1	3	292	0.00	29.731 
20:30	47.7	47.7	47.7	42	25.7	2	6	248	0.00	29.731 
20:35	47.6	47.6	47.6	43	26.2	2	6	248	0.00	29.732 
20:40	47.6	47.6	47.6	43	26.2	2	5	248	0.00	29.730 
20:45	47.4	47.4	47.4	43	26.0	2	4	248	0.00	29.730 
20:50	47.4	47.4	47.4	44	26.6	1	2	248	0.00	29.736 
20:55	47.3	47.3	47.3	45	27.0	2	4	270	0.00	29.737 
21:00	47.1	47.1	47.1	45	26.9	1	5	248	0.00	29.740 
21:05	47.1	47.1	47.1	46	27.4	1	3	248	0.00	29.739 
21:10	47.0	47.0	47.0	46	27.3	1	4	270	0.00	29.739 
21:15	47.0	47.0	47.0	46	27.3	1	3	248	0.00	29.742 
21:20	47.0	47.0	47.0	46	27.3	1	4	248	0.00	29.742 
21:25	47.0	47.0	47.0	46	27.3	1	4	270	0.00	29.743 
21:30	46.8	46.8	46.8	46	27.1	1	4	202	0.00	29.743 
21:35	46.8	46.8	46.8	46	27.1	1	2	248	0.00	29.742 
21:40	46.8	46.8	46.8	46	27.1	1	4	270	0.00	29.741 
21:45	46.7	46.7	46.7	47	27.6	0	3	270	0.00	29.742 
21:50	46.7	46.7	46.7	48	28.1	1	7	248	0.00	29.739 
21:55	46.5	46.5	46.5	48	27.9	1	6	248	0.00	29.735 
22:00	46.5	46.5	46.5	48	27.9	2	7	248	0.00	29.736 
22:05	46.5	46.5	46.5	48	27.9	2	4	248	0.00	29.738 
22:10	46.5	46.5	46.5	48	27.9	1	4	248	0.00	29.742 
22:15	46.4	46.4	46.4	49	28.3	1	3	248	0.00	29.746 
22:20	46.4	46.4	46.4	49	28.3	1	3	248	0.00	29.747 
22:25	46.2	46.2	46.2	49	28.1	1	5	270	0.00	29.745 
22:30	46.2	46.2	46.2	49	28.1	2	4	270	0.00	29.744 
22:35	46.2	46.2	46.2	49	28.1	2	3	248	0.00	29.744 
22:40	46.1	46.1	46.1	50	28.5	0	2	270	0.00	29.744 
22:45	46.1	46.1	46.1	50	28.5	0	5	270	0.00	29.743 
22:50	46.0	46.0	46.0	50	28.4	1	3	248	0.00	29.743 
22:55	46.0	46.0	46.0	50	28.4	1	4	270	0.00	29.744 
23:00	45.8	45.8	45.8	50	28.2	1	2	270	0.00	29.743 
23:05	45.7	45.7	45.7	48	27.1	2	9	270	0.00	29.743 
23:10	45.5	45.5	45.5	48	27.0	2	5	248	0.00	29.743 
23:15	45.5	45.5	45.5	48	27.0	1	5	270	0.00	29.744 
23:20	45.4	45.4	45.4	47	26.4	2	4	248	0.00	29.742 
23:25	45.2	45.2	45.2	47	26.2	2	5	270	0.00	29.740 
23:30	45.1	45.1	45.1	47	26.1	2	5	292	0.00	29.744 
23:35	44.9	44.9	44.9	47	25.9	2	6	270	0.00	29.737 
23:40	44.9	44.9	44.9	47	25.9	2	5	248	0.00	29.742 
23:45	44.8	44.8	44.8	48	26.3	1	3	292	0.00	29.741 
23:50	44.6	44.6	44.6	49	26.6	1	4	248	0.00	29.741 
23:55	44.6	44.6	44.6	48	26.1	1	7	270	0.00	29.742 

CoCoRaHS
IN-AL-39
A2 Web Hosting
Creative Commons License
GoDaddy
Look for:

loaded 2017-10-17 09:42:25 • last modified 2010-11-18 10:43:29
Privacy PolicyDisclaimer
• wx.awcolley.com is powered by PmWiki v.2002016 •
• all content (unless otherwise noted) © 2017 A W Colley